createdAt,value
2022-09-11T00:02:08.887Z,98627.16
2022-09-11T00:07:30.962Z,98622.69
2022-09-11T00:12:53.082Z,98623.16
2022-09-11T00:18:17.493Z,98619.22
2022-09-11T00:23:39.322Z,98623.53
2022-09-11T00:29:01.834Z,98617.69
2022-09-11T00:34:23.683Z,98618.63
2022-09-11T00:39:45.402Z,98611.91
2022-09-11T00:45:09.037Z,98615.00
2022-09-11T00:50:32.638Z,98608.41
2022-09-11T00:56:01.680Z,98610.94
2022-09-11T01:01:23.362Z,98607.56
2022-09-11T01:06:46.634Z,98616.47
2022-09-11T01:12:17.479Z,98600.69
2022-09-11T01:18:14.987Z,98605.16
2022-09-11T01:23:55.949Z,98606.69
2022-09-11T01:29:39.378Z,98610.16
2022-09-11T01:35:13.471Z,98618.13
2022-09-11T01:40:57.569Z,98613.34
2022-09-11T01:46:23.012Z,98612.28
2022-09-11T01:51:47.560Z,98603.38
2022-09-11T01:57:36.686Z,98619.50
2022-09-11T02:03:07.461Z,98608.78
2022-09-11T02:08:58.635Z,98614.44
2022-09-11T02:14:25.758Z,98613.72
2022-09-11T02:19:49.160Z,98626.44
2022-09-11T02:25:11.553Z,98642.06
2022-09-11T02:30:33.466Z,98630.88
2022-09-11T02:36:05.190Z,98632.09
2022-09-11T02:41:42.360Z,98641.81
2022-09-11T02:47:05.595Z,98645.28
2022-09-11T02:52:49.341Z,98654.41
2022-09-11T02:58:26.930Z,98652.38
2022-09-11T03:03:49.385Z,98644.66
2022-09-11T03:09:11.153Z,98648.59
2022-09-11T03:14:32.883Z,98636.84
2022-09-11T03:19:54.695Z,98640.69
2022-09-11T03:25:16.451Z,98643.06
2022-09-11T03:30:39.655Z,98644.53
2022-09-11T03:36:01.572Z,98641.88
2022-09-11T03:41:23.304Z,98642.97
2022-09-11T03:46:45.017Z,98651.72
2022-09-11T03:52:06.824Z,98642.97
2022-09-11T03:57:28.568Z,98648.72
2022-09-11T04:02:50.478Z,98647.06
2022-09-11T04:08:13.224Z,98645.97
2022-09-11T04:13:37.495Z,98648.22
2022-09-11T04:19:01.825Z,98649.78
2022-09-11T04:24:23.589Z,98661.28
2022-09-11T04:29:47.948Z,98671.72
2022-09-11T04:35:09.772Z,98657.25
2022-09-11T04:40:33.815Z,98670.66
2022-09-11T04:46:03.737Z,98678.94
2022-09-11T04:51:29.174Z,98680.28
2022-09-11T04:56:51.213Z,98697.56
2022-09-11T05:02:13.055Z,98700.41
2022-09-11T05:07:35.574Z,98716.22
2022-09-11T05:12:57.352Z,98715.78
2022-09-11T05:18:19.227Z,98719.69
2022-09-11T05:23:42.355Z,98718.97
2022-09-11T05:29:09.895Z,98724.03
2022-09-11T05:34:31.699Z,98737.84
2022-09-11T05:39:53.569Z,98738.44
2022-09-11T05:45:15.473Z,98746.63
2022-09-11T05:50:38.365Z,98750.09
2022-09-11T05:56:20.711Z,98756.09
2022-09-11T06:01:43.213Z,98760.03
2022-09-11T06:07:05.068Z,98774.56
2022-09-11T06:12:28.329Z,98780.66
2022-09-11T06:17:50.079Z,98781.75
2022-09-11T06:23:12.141Z,98791.59
2022-09-11T06:28:35.658Z,98799.00
2022-09-11T06:33:57.472Z,98797.81
2022-09-11T06:39:23.154Z,98802.16
2022-09-11T06:44:50.084Z,98812.47
2022-09-11T06:50:12.468Z,98811.38
2022-09-11T06:55:35.686Z,98819.19
2022-09-11T07:01:27.119Z,98815.09
2022-09-11T07:06:50.154Z,98808.34
2022-09-11T07:12:12.107Z,98828.41
2022-09-11T07:17:33.976Z,98813.63
2022-09-11T07:22:55.729Z,98808.72
2022-09-11T07:28:17.471Z,98818.47
2022-09-11T07:33:42.842Z,98816.53
2022-09-11T07:39:05.045Z,98822.88
2022-09-11T07:44:26.834Z,98829.03
2022-09-11T07:49:48.798Z,98832.72
2022-09-11T07:55:10.727Z,98848.91
2022-09-11T08:00:36.894Z,98846.16
2022-09-11T08:06:03.981Z,98858.88
2022-09-11T08:11:27.767Z,98857.31
2022-09-11T08:16:49.590Z,98862.81
2022-09-11T08:22:11.490Z,98861.22
2022-09-11T08:27:33.350Z,98869.50
2022-09-11T08:32:55.196Z,98867.31
2022-09-11T08:38:18.067Z,98875.19
2022-09-11T08:43:50.854Z,98872.16
2022-09-11T08:49:27.284Z,98875.13
2022-09-11T08:54:50.612Z,98886.09
2022-09-11T09:00:24.782Z,98886.97
2022-09-11T09:06:25.385Z,98890.13
2022-09-11T09:12:10.184Z,98887.47
2022-09-11T09:17:49.156Z,98883.84
2022-09-11T09:23:18.334Z,98884.63
2022-09-11T09:28:45.029Z,98888.50
2022-09-11T09:34:22.039Z,98891.69
2022-09-11T09:39:45.123Z,98885.75
2022-09-11T09:45:19.196Z,98889.25
2022-09-11T09:50:44.165Z,98891.63
2022-09-11T09:56:06.171Z,98899.28
2022-09-11T10:01:40.053Z,98892.34
2022-09-11T10:07:14.164Z,98894.88
2022-09-11T10:12:36.203Z,98891.69
2022-09-11T10:18:30.485Z,98888.94
2022-09-11T10:24:17.620Z,98892.44
2022-09-11T10:29:50.311Z,98893.94
2022-09-11T10:35:12.634Z,98886.56
2022-09-11T10:40:34.493Z,98876.16
2022-09-11T10:46:05.097Z,98883.00
2022-09-11T10:51:29.907Z,98885.81
2022-09-11T10:57:13.212Z,98876.75
2022-09-11T11:02:38.828Z,98862.81
2022-09-11T11:08:15.459Z,98871.78
2022-09-11T11:14:15.468Z,98867.03
2022-09-11T11:19:51.473Z,98868.34
2022-09-11T11:25:27.467Z,98873.22
2022-09-11T11:31:23.786Z,98866.69
2022-09-11T11:36:50.180Z,98858.47
2022-09-11T11:42:22.736Z,98873.19
2022-09-11T11:47:47.281Z,98875.31
2022-09-11T11:53:50.345Z,98871.84
2022-09-11T11:59:19.569Z,98870.03
2022-09-11T12:05:03.021Z,98858.44
2022-09-11T12:10:33.364Z,98861.09
2022-09-11T12:16:11.457Z,98861.38
2022-09-11T12:21:39.481Z,98860.41
2022-09-11T12:27:35.138Z,98856.22
2022-09-11T12:33:00.285Z,98858.84
2022-09-11T12:38:40.771Z,98861.22
2022-09-11T12:44:04.573Z,98864.47
2022-09-11T12:49:27.270Z,98862.22
2022-09-11T12:54:49.285Z,98861.81
2022-09-11T13:00:22.899Z,98861.66
2022-09-11T13:05:54.587Z,98856.22
2022-09-11T13:11:38.156Z,98850.91
2022-09-11T13:17:12.148Z,98849.91
2022-09-11T13:22:35.184Z,98841.25
2022-09-11T13:28:03.936Z,98849.91
2022-09-11T13:33:29.052Z,98845.31
2022-09-11T13:38:56.021Z,98839.88
2022-09-11T13:44:40.408Z,98839.47
2022-09-11T13:50:06.521Z,98838.78
2022-09-11T13:55:28.331Z,98835.28
2022-09-11T14:00:55.437Z,98832.63
2022-09-11T14:06:20.553Z,98830.94
2022-09-11T14:11:42.319Z,98824.22
2022-09-11T14:17:04.636Z,98821.31
2022-09-11T14:22:31.064Z,98807.47
2022-09-11T14:27:53.126Z,98797.13
2022-09-11T14:33:22.584Z,98790.00
2022-09-11T14:38:44.820Z,98788.00
2022-09-11T14:44:11.330Z,98788.25
2022-09-11T14:49:33.200Z,98786.56
2022-09-11T14:54:55.744Z,98782.59
2022-09-11T15:00:19.542Z,98773.66
2022-09-11T15:05:43.118Z,98776.91
2022-09-11T15:11:05.013Z,98769.94
2022-09-11T15:16:26.770Z,98767.78
2022-09-11T15:21:48.624Z,98764.66
2022-09-11T15:27:10.450Z,98766.47
2022-09-11T15:32:32.348Z,98761.41
2022-09-11T15:37:54.189Z,98763.47
2022-09-11T15:43:15.970Z,98755.78
2022-09-11T15:48:39.185Z,98746.50
2022-09-11T15:54:02.497Z,98748.19
2022-09-11T15:59:24.266Z,98750.97
2022-09-11T16:04:51.600Z,98749.59
2022-09-11T16:10:15.319Z,98745.72
2022-09-11T16:15:37.199Z,98740.72
2022-09-11T16:20:59.346Z,98742.81
2022-09-11T16:26:24.076Z,98739.63
2022-09-11T16:31:45.914Z,98741.59
2022-09-11T16:37:07.755Z,98743.56
2022-09-11T16:42:29.520Z,98745.13
2022-09-11T16:47:52.075Z,98742.75
2022-09-11T16:53:13.908Z,98746.69
2022-09-11T16:58:36.584Z,98751.00
2022-09-11T17:03:58.495Z,98741.22
2022-09-11T17:09:20.330Z,98735.91
2022-09-11T17:14:42.126Z,98736.91
2022-09-11T17:20:04.494Z,98734.69
2022-09-11T17:25:26.310Z,98739.03
2022-09-11T17:30:48.093Z,98735.25
2022-09-11T17:36:11.476Z,98737.50
2022-09-11T17:41:33.367Z,98746.63
2022-09-11T17:46:56.946Z,98747.22
2022-09-11T17:52:21.350Z,98752.94
2022-09-11T17:57:45.400Z,98768.00
2022-09-11T18:03:08.050Z,98760.34
2022-09-11T18:08:32.831Z,98765.78
2022-09-11T18:13:54.807Z,98767.19
2022-09-11T18:19:20.188Z,98772.84
2022-09-11T18:24:41.996Z,98773.53
2022-09-11T18:30:04.097Z,98783.28
2022-09-11T18:35:26.727Z,98777.56
2022-09-11T18:40:54.476Z,98777.81
2022-09-11T18:46:16.435Z,98774.88
2022-09-11T18:51:38.323Z,98781.09
2022-09-11T18:57:00.395Z,98776.75
2022-09-11T19:02:22.328Z,98781.19
2022-09-11T19:07:45.480Z,98774.34
2022-09-11T19:13:07.384Z,98773.00
2022-09-11T19:18:29.095Z,98777.59
2022-09-11T19:23:55.797Z,98784.13
2022-09-11T19:29:20.159Z,98779.59
2022-09-11T19:34:46.906Z,98783.97
2022-09-11T19:40:09.908Z,98790.63
2022-09-11T19:45:31.693Z,98778.75
2022-09-11T19:50:54.059Z,98787.66
2022-09-11T19:56:16.763Z,98787.66
2022-09-11T20:01:38.640Z,98787.44
2022-09-11T20:07:00.623Z,98789.63
2022-09-11T20:12:22.503Z,98786.25
2022-09-11T20:17:47.408Z,98792.41
2022-09-11T20:23:10.244Z,98792.28
2022-09-11T20:28:32.037Z,98803.56
2022-09-11T20:33:54.723Z,98793.63
2022-09-11T20:39:16.616Z,98793.25
2022-09-11T20:44:38.358Z,98788.34
2022-09-11T20:50:00.759Z,98782.44
2022-09-11T20:55:23.030Z,98784.75
2022-09-11T21:00:46.024Z,98783.94
2022-09-11T21:06:08.553Z,98780.59
2022-09-11T21:11:30.979Z,98779.97
2022-09-11T21:16:53.140Z,98779.50
2022-09-11T21:22:14.911Z,98777.88
2022-09-11T21:27:36.727Z,98783.22
2022-09-11T21:32:58.649Z,98776.16
2022-09-11T21:38:25.892Z,98777.81
2022-09-11T21:43:47.933Z,98773.41
2022-09-11T21:49:10.042Z,98773.03
2022-09-11T21:54:32.119Z,98773.75
2022-09-11T21:59:54.419Z,98765.03
2022-09-11T22:05:17.088Z,98779.41
2022-09-11T22:10:47.477Z,98774.88
2022-09-11T22:16:12.326Z,98779.56
2022-09-11T22:21:34.123Z,98771.28
2022-09-11T22:26:55.843Z,98770.28
2022-09-11T22:32:17.588Z,98767.56
2022-09-11T22:37:39.352Z,98761.66
2022-09-11T22:43:01.183Z,98759.03
2022-09-11T22:48:23.093Z,98763.19
2022-09-11T22:53:45.166Z,98765.19
2022-09-11T22:59:07.235Z,98761.13
2022-09-11T23:04:29.000Z,98761.69
2022-09-11T23:09:50.719Z,98759.81
2022-09-11T23:15:12.475Z,98756.47
2022-09-11T23:20:34.238Z,98755.59
2022-09-11T23:25:56.007Z,98758.94
2022-09-11T23:31:20.946Z,98751.47
2022-09-11T23:36:43.709Z,98750.31
2022-09-11T23:42:05.675Z,98740.41
2022-09-11T23:47:27.426Z,98741.13
2022-09-11T23:52:49.155Z,98744.22
2022-09-11T23:58:10.923Z,98744.66
